createdAt,value
2022-12-04T00:01:08.720Z,73957.59
2022-12-04T00:03:36.817Z,73956.53
2022-12-04T00:06:08.052Z,73955.63
2022-12-04T00:08:35.777Z,73955.22
2022-12-04T00:11:05.627Z,73954.72
2022-12-04T00:13:33.775Z,73954.09
2022-12-04T00:16:01.393Z,73953.94
2022-12-04T00:18:28.536Z,73953.66
2022-12-04T00:20:55.569Z,73953.34
2022-12-04T00:23:22.574Z,73952.59
2022-12-04T00:25:49.687Z,73952.31
2022-12-04T00:28:17.990Z,73951.75
2022-12-04T00:30:46.023Z,73951.31
2022-12-04T00:33:14.245Z,73949.81
2022-12-04T00:35:41.585Z,73948.69
2022-12-04T00:38:08.595Z,73947.94
2022-12-04T00:40:35.683Z,73946.00
2022-12-04T00:43:02.845Z,73944.44
2022-12-04T00:45:29.953Z,73942.56
2022-12-04T00:47:56.894Z,73940.75
2022-12-04T00:50:24.122Z,73939.16
2022-12-04T00:52:51.027Z,73937.13
2022-12-04T00:55:18.178Z,73935.03
2022-12-04T00:57:45.255Z,73933.75
2022-12-04T01:00:12.597Z,73932.00
2022-12-04T01:02:39.755Z,73930.69
2022-12-04T01:05:07.116Z,73929.22
2022-12-04T01:07:34.172Z,73928.03
2022-12-04T01:10:01.254Z,73926.94
2022-12-04T01:12:28.252Z,73925.03
2022-12-04T01:14:55.230Z,73922.97
2022-12-04T01:17:22.343Z,73920.94
2022-12-04T01:19:49.390Z,73918.84
2022-12-04T01:22:16.472Z,73917.91
2022-12-04T01:24:43.372Z,73916.72
2022-12-04T01:27:10.428Z,73915.91
2022-12-04T01:29:38.592Z,73914.59
2022-12-04T01:32:06.025Z,73913.16
2022-12-04T01:34:33.095Z,73911.53
2022-12-04T01:37:00.146Z,73910.41
2022-12-04T01:39:27.185Z,73908.50
2022-12-04T01:41:54.213Z,73907.06
2022-12-04T01:44:24.160Z,73905.88
2022-12-04T01:46:56.281Z,73904.88
2022-12-04T01:49:34.227Z,73903.78
2022-12-04T01:52:05.792Z,73902.94
2022-12-04T01:54:37.456Z,73902.13
2022-12-04T01:57:15.367Z,73900.66
2022-12-04T01:59:50.809Z,73898.84
2022-12-04T02:02:23.516Z,73898.16
2022-12-04T02:04:51.271Z,73897.00
2022-12-04T02:07:18.202Z,73895.69
2022-12-04T02:09:45.795Z,73894.06
2022-12-04T02:12:22.677Z,73892.59
2022-12-04T02:15:02.114Z,73891.22
2022-12-04T02:17:39.619Z,73889.50
2022-12-04T02:20:33.213Z,73887.94
2022-12-04T02:23:32.292Z,73886.16
2022-12-04T02:26:24.029Z,73884.59
2022-12-04T02:28:58.498Z,73883.03
2022-12-04T02:31:36.793Z,73881.06
2022-12-04T02:34:43.716Z,73879.44
2022-12-04T02:37:19.513Z,73878.13
2022-12-04T02:40:01.180Z,73876.41
2022-12-04T02:42:33.903Z,73874.53
2022-12-04T02:45:06.317Z,73872.31
2022-12-04T02:47:36.573Z,73870.28
2022-12-04T02:50:07.632Z,73868.25
2022-12-04T02:52:44.396Z,73866.66
2022-12-04T02:55:26.987Z,73864.47
2022-12-04T02:58:01.597Z,73862.28
2022-12-04T03:00:30.880Z,73859.78
2022-12-04T03:03:18.232Z,73857.50
2022-12-04T03:05:51.885Z,73854.13
2022-12-04T03:08:23.222Z,73851.53
2022-12-04T03:10:55.889Z,73849.06
2022-12-04T03:13:27.584Z,73846.63
2022-12-04T03:15:59.020Z,73844.31
2022-12-04T03:18:34.326Z,73841.97
2022-12-04T03:21:09.089Z,73839.66
2022-12-04T03:23:44.648Z,73837.88
2022-12-04T03:26:33.608Z,73835.97
2022-12-04T03:29:22.840Z,73834.06
2022-12-04T03:32:05.904Z,73831.97
2022-12-04T03:34:53.512Z,73831.28
2022-12-04T03:37:29.607Z,73829.88
2022-12-04T03:40:02.826Z,73828.84
2022-12-04T03:43:11.411Z,73828.75
2022-12-04T03:45:49.677Z,73827.47
2022-12-04T03:48:28.356Z,73826.19
2022-12-04T03:51:02.916Z,73824.00
2022-12-04T03:53:35.741Z,73821.53
2022-12-04T03:56:11.272Z,73818.66
2022-12-04T03:58:42.444Z,73815.16
2022-12-04T04:01:12.258Z,73812.00
2022-12-04T04:03:48.353Z,73808.38
2022-12-04T04:06:24.193Z,73804.03
2022-12-04T04:08:56.747Z,73800.28
2022-12-04T04:11:40.699Z,73796.66
2022-12-04T04:14:37.443Z,73792.88
2022-12-04T04:17:27.061Z,73789.09
2022-12-04T04:20:22.319Z,73784.97
2022-12-04T04:23:11.473Z,73781.19
2022-12-04T04:25:42.366Z,73777.44
2022-12-04T04:28:31.004Z,73773.09
2022-12-04T04:31:07.688Z,73769.00
2022-12-04T04:33:47.193Z,73765.00
2022-12-04T04:37:06.581Z,73760.94
2022-12-04T04:39:48.258Z,73756.06
2022-12-04T04:42:26.892Z,73751.53
2022-12-04T04:44:56.532Z,73747.75
2022-12-04T04:47:34.710Z,73744.13
2022-12-04T04:50:05.280Z,73740.53
2022-12-04T04:52:33.729Z,73735.97
2022-12-04T04:55:01.593Z,73731.78
2022-12-04T04:57:35.948Z,73727.44
2022-12-04T05:00:09.821Z,73722.47
2022-12-04T05:02:37.049Z,73717.56
2022-12-04T05:05:04.765Z,73712.28
2022-12-04T05:07:31.724Z,73707.00
2022-12-04T05:09:59.155Z,73702.25
2022-12-04T05:12:26.321Z,73697.00
2022-12-04T05:14:53.399Z,73692.34
2022-12-04T05:17:20.399Z,73687.97
2022-12-04T05:19:53.867Z,73684.19
2022-12-04T05:22:33.579Z,73680.69
2022-12-04T05:25:01.578Z,73677.31
2022-12-04T05:27:30.092Z,73674.13
2022-12-04T05:29:58.514Z,73671.81
2022-12-04T05:32:28.772Z,73669.19
2022-12-04T05:34:57.228Z,73666.50
2022-12-04T05:37:25.539Z,73664.06
2022-12-04T05:39:52.797Z,73661.41
2022-12-04T05:42:20.280Z,73658.94
2022-12-04T05:44:48.454Z,73656.44
2022-12-04T05:47:16.638Z,73654.69
2022-12-04T05:49:43.547Z,73652.66
2022-12-04T05:52:10.845Z,73651.59
2022-12-04T05:54:38.039Z,73649.69
2022-12-04T05:57:05.207Z,73647.75
2022-12-04T05:59:32.534Z,73646.03
2022-12-04T06:01:59.686Z,73644.41
2022-12-04T06:04:26.763Z,73642.66
2022-12-04T06:06:54.815Z,73640.78
2022-12-04T06:09:21.813Z,73639.19
2022-12-04T06:11:48.900Z,73638.50
2022-12-04T06:14:16.666Z,73637.63
2022-12-04T06:16:45.994Z,73637.19
2022-12-04T06:19:16.013Z,73636.88
2022-12-04T06:21:44.759Z,73637.13
2022-12-04T06:24:17.346Z,73638.25
2022-12-04T06:27:11.005Z,73640.63
2022-12-04T06:29:32.980Z,73643.81
2022-12-04T06:31:59.980Z,73647.47
2022-12-04T06:34:27.088Z,73652.03
2022-12-04T06:36:54.136Z,73657.09
2022-12-04T06:39:21.163Z,73663.06
2022-12-04T06:41:48.241Z,73669.69
2022-12-04T06:44:16.408Z,73676.09
2022-12-04T06:46:46.843Z,73682.75
2022-12-04T06:49:14.690Z,73689.72
2022-12-04T06:51:42.024Z,73697.34
2022-12-04T06:54:10.916Z,73705.06
2022-12-04T06:56:38.021Z,73712.69
2022-12-04T06:59:05.808Z,73720.25
2022-12-04T07:01:34.508Z,73727.94
2022-12-04T07:04:04.276Z,73736.09
2022-12-04T07:06:34.372Z,73744.22
2022-12-04T07:09:05.530Z,73752.50
2022-12-04T07:11:33.451Z,73761.13
2022-12-04T07:14:00.400Z,73769.56
2022-12-04T07:16:28.527Z,73778.00
2022-12-04T07:18:59.014Z,73786.63
2022-12-04T07:21:30.732Z,73795.38
2022-12-04T07:24:01.062Z,73804.41
2022-12-04T07:26:30.306Z,73813.13
2022-12-04T07:28:58.459Z,73822.03
2022-12-04T07:31:27.786Z,73831.06
2022-12-04T07:33:55.598Z,73839.50
2022-12-04T07:36:24.508Z,73848.84
2022-12-04T07:38:51.911Z,73858.59
2022-12-04T07:41:19.511Z,73868.66
2022-12-04T07:43:46.819Z,73878.75
2022-12-04T07:46:17.778Z,73888.19
2022-12-04T07:48:44.989Z,73897.69
2022-12-04T07:51:23.207Z,73907.13
2022-12-04T07:53:51.432Z,73916.63
2022-12-04T07:56:19.280Z,73925.66
2022-12-04T07:58:48.003Z,73934.38
2022-12-04T08:01:21.763Z,73943.84
2022-12-04T08:03:51.741Z,73953.53
2022-12-04T08:06:21.397Z,73963.59
2022-12-04T08:08:48.968Z,73973.69
2022-12-04T08:11:19.966Z,73983.66
2022-12-04T08:13:47.066Z,73993.72
2022-12-04T08:16:15.744Z,74004.03
2022-12-04T08:18:47.016Z,74014.84
2022-12-04T08:21:20.927Z,74026.66
2022-12-04T08:23:50.353Z,74038.03
2022-12-04T08:26:19.462Z,74048.31
2022-12-04T08:28:46.773Z,74057.56
2022-12-04T08:31:19.568Z,74067.22
2022-12-04T08:33:48.315Z,74077.28
2022-12-04T08:36:19.414Z,74087.31
2022-12-04T08:38:47.407Z,74097.38
2022-12-04T08:41:18.458Z,74107.28
2022-12-04T08:43:48.005Z,74117.06
2022-12-04T08:46:19.883Z,74127.28
2022-12-04T08:48:47.609Z,74138.13
2022-12-04T08:51:17.004Z,74148.41
2022-12-04T08:53:44.756Z,74158.03
2022-12-04T08:56:12.225Z,74166.50
2022-12-04T08:58:39.533Z,74174.84
2022-12-04T09:01:12.107Z,74182.41
2022-12-04T09:03:39.909Z,74189.97
2022-12-04T09:06:08.751Z,74197.56
2022-12-04T09:08:36.628Z,74205.41
2022-12-04T09:11:13.292Z,74213.03
2022-12-04T09:13:41.324Z,74220.34
2022-12-04T09:16:27.185Z,74227.66
2022-12-04T09:18:55.654Z,74233.19
2022-12-04T09:21:24.293Z,74237.84
2022-12-04T09:23:51.985Z,74241.91
2022-12-04T09:26:25.840Z,74246.59
2022-12-04T09:28:54.373Z,74250.63
2022-12-04T09:31:23.671Z,74254.53
2022-12-04T09:33:51.297Z,74258.91
2022-12-04T09:36:18.681Z,74261.94
2022-12-04T09:38:48.772Z,74266.25
2022-12-04T09:41:49.942Z,74269.75
2022-12-04T09:44:34.167Z,74272.09
2022-12-04T09:47:11.300Z,74273.84
2022-12-04T09:49:48.076Z,74275.59
2022-12-04T09:52:39.325Z,74277.59
2022-12-04T09:55:14.339Z,74280.06
2022-12-04T09:57:48.498Z,74281.63
2022-12-04T10:00:18.901Z,74283.06
2022-12-04T10:02:56.244Z,74285.13
2022-12-04T10:05:42.486Z,74287.06
2022-12-04T10:08:23.652Z,74289.69
2022-12-04T10:11:18.264Z,74292.16
2022-12-04T10:14:16.198Z,74295.13
2022-12-04T10:17:12.819Z,74298.16
2022-12-04T10:20:11.853Z,74301.91
2022-12-04T10:22:51.102Z,74306.41
2022-12-04T10:25:22.785Z,74310.97
2022-12-04T10:27:56.131Z,74314.28
2022-12-04T10:30:24.619Z,74318.16
2022-12-04T10:33:16.100Z,74319.53
2022-12-04T10:35:46.329Z,74322.22
2022-12-04T10:38:48.092Z,74325.41
2022-12-04T10:41:48.997Z,74327.09
2022-12-04T10:44:18.668Z,74330.34
2022-12-04T10:46:46.891Z,74332.53
2022-12-04T10:49:28.160Z,74335.00
2022-12-04T10:51:56.749Z,74338.34
2022-12-04T10:55:01.367Z,74341.84
2022-12-04T10:57:54.219Z,74346.53
2022-12-04T11:00:29.356Z,74351.91
2022-12-04T11:03:00.219Z,74356.78
2022-12-04T11:05:38.813Z,74359.41
2022-12-04T11:08:08.474Z,74360.25
2022-12-04T11:10:43.857Z,74360.66
2022-12-04T11:13:11.518Z,74360.97
2022-12-04T11:15:56.773Z,74360.97
2022-12-04T11:18:26.715Z,74360.47
2022-12-04T11:21:08.302Z,74360.31
2022-12-04T11:23:43.946Z,74359.91
2022-12-04T11:26:12.837Z,74360.03
2022-12-04T11:28:46.027Z,74361.03
2022-12-04T11:31:20.821Z,74362.38
2022-12-04T11:33:53.940Z,74363.94
2022-12-04T11:36:36.254Z,74366.22
2022-12-04T11:39:13.841Z,74368.56
2022-12-04T11:41:41.918Z,74371.69
2022-12-04T11:44:31.384Z,74374.75
2022-12-04T11:47:03.001Z,74377.16
2022-12-04T11:49:33.056Z,74378.34
2022-12-04T11:52:22.633Z,74378.59
2022-12-04T11:55:03.810Z,74379.66
2022-12-04T11:57:49.594Z,74380.41
2022-12-04T12:00:20.435Z,74381.00
2022-12-04T12:03:12.053Z,74381.88
2022-12-04T12:05:58.352Z,74381.81
2022-12-04T12:08:56.441Z,74383.75
2022-12-04T12:11:27.982Z,74384.50
2022-12-04T12:14:24.720Z,74383.75
2022-12-04T12:19:24.678Z,74383.91
2022-12-04T12:22:03.598Z,74383.31
2022-12-04T12:24:55.659Z,74383.31
2022-12-04T12:27:46.104Z,74383.63
2022-12-04T12:30:24.404Z,74384.22
2022-12-04T12:33:25.084Z,74384.78
2022-12-04T12:35:52.121Z,74384.78
2022-12-04T12:38:37.149Z,74384.50
2022-12-04T12:41:14.536Z,74385.50
2022-12-04T12:43:48.210Z,74386.88
2022-12-04T12:46:39.596Z,74386.59
2022-12-04T12:49:19.332Z,74385.09
2022-12-04T12:51:57.291Z,74384.44
2022-12-04T12:54:39.473Z,74384.00
2022-12-04T12:57:15.352Z,74384.53
2022-12-04T12:59:49.152Z,74385.38
2022-12-04T13:02:38.681Z,74386.09
2022-12-04T13:05:11.305Z,74388.44
2022-12-04T13:08:06.342Z,74389.88
2022-12-04T13:10:51.756Z,74390.06
2022-12-04T13:13:26.788Z,74390.66
2022-12-04T13:16:09.918Z,74391.72
2022-12-04T13:18:50.613Z,74392.47
2022-12-04T13:21:26.862Z,74393.50
2022-12-04T13:24:11.975Z,74394.25
2022-12-04T13:26:51.221Z,74395.28
2022-12-04T13:29:44.700Z,74395.44
2022-12-04T13:32:37.506Z,74395.56
2022-12-04T13:35:27.675Z,74394.25
2022-12-04T13:38:12.930Z,74392.41
2022-12-04T13:40:43.361Z,74390.69
2022-12-04T13:43:24.974Z,74388.16
2022-12-04T13:45:54.615Z,74385.75
2022-12-04T13:48:40.459Z,74381.94
2022-12-04T13:51:24.360Z,74376.94
2022-12-04T13:54:13.357Z,74371.41
2022-12-04T13:56:43.526Z,74367.38
2022-12-04T13:59:37.152Z,74363.81
2022-12-04T14:02:24.385Z,74360.25
2022-12-04T14:04:57.383Z,74355.97
2022-12-04T14:07:34.807Z,74351.44
2022-12-04T14:10:08.973Z,74346.28
2022-12-04T14:12:41.293Z,74342.06
2022-12-04T14:15:38.290Z,74338.00
2022-12-04T14:18:11.464Z,74333.84
2022-12-04T14:20:38.736Z,74329.69
2022-12-04T14:23:26.582Z,74325.59
2022-12-04T14:25:59.147Z,74321.81
2022-12-04T14:28:33.942Z,74318.00
2022-12-04T14:31:08.832Z,74314.50
2022-12-04T14:33:45.769Z,74310.59
2022-12-04T14:36:41.228Z,74306.78
2022-12-04T14:39:33.407Z,74302.53
2022-12-04T14:42:18.763Z,74298.28
2022-12-04T14:44:51.700Z,74293.84
2022-12-04T14:47:40.340Z,74289.75
2022-12-04T14:50:31.458Z,74285.38
2022-12-04T14:53:17.124Z,74281.22
2022-12-04T14:56:07.104Z,74276.53
2022-12-04T14:58:39.048Z,74272.03
2022-12-04T15:01:29.479Z,74266.78
2022-12-04T15:04:01.508Z,74261.03
2022-12-04T15:06:33.304Z,74255.56
2022-12-04T15:09:21.771Z,74250.34
2022-12-04T15:12:10.948Z,74244.63
2022-12-04T15:14:46.315Z,74238.78
2022-12-04T15:17:18.364Z,74232.63
2022-12-04T15:19:46.364Z,74226.81
2022-12-04T15:22:25.084Z,74221.00
2022-12-04T15:24:55.830Z,74214.94
2022-12-04T15:27:30.528Z,74209.09
2022-12-04T15:30:00.942Z,74203.44
2022-12-04T15:32:28.900Z,74197.31
2022-12-04T15:35:01.272Z,74191.47
2022-12-04T15:37:31.435Z,74185.16
2022-12-04T15:39:59.675Z,74178.75
2022-12-04T15:42:29.468Z,74172.31
2022-12-04T15:45:02.248Z,74166.38
2022-12-04T15:47:53.682Z,74160.13
2022-12-04T15:50:22.673Z,74153.56
2022-12-04T15:53:02.349Z,74146.81
2022-12-04T15:55:32.604Z,74140.09
2022-12-04T15:58:04.996Z,74133.84
2022-12-04T16:00:34.405Z,74127.72
2022-12-04T16:03:03.276Z,74121.31
2022-12-04T16:05:36.713Z,74115.81
2022-12-04T16:08:23.440Z,74110.00
2022-12-04T16:11:02.699Z,74104.59
2022-12-04T16:13:39.279Z,74098.94
2022-12-04T16:16:10.894Z,74093.50
2022-12-04T16:18:39.159Z,74088.88
2022-12-04T16:21:10.627Z,74083.66
2022-12-04T16:23:37.667Z,74078.16
2022-12-04T16:26:06.765Z,74072.91
2022-12-04T16:28:33.845Z,74067.81
2022-12-04T16:31:00.925Z,74063.03
2022-12-04T16:33:28.322Z,74058.44
2022-12-04T16:35:55.388Z,74053.59
2022-12-04T16:38:22.447Z,74048.41
2022-12-04T16:40:49.741Z,74044.19
2022-12-04T16:43:17.949Z,74039.66
2022-12-04T16:45:52.651Z,74035.63
2022-12-04T16:48:20.026Z,74030.91
2022-12-04T16:50:47.743Z,74026.97
2022-12-04T16:53:19.793Z,74023.50
2022-12-04T16:55:51.786Z,74019.38
2022-12-04T16:58:20.405Z,74015.59
2022-12-04T17:00:54.030Z,74011.47
2022-12-04T17:03:26.041Z,74007.66
2022-12-04T17:05:53.498Z,74004.03
2022-12-04T17:08:21.459Z,73999.94
2022-12-04T17:10:48.867Z,73996.63
2022-12-04T17:13:18.641Z,73993.09
2022-12-04T17:15:46.448Z,73989.53
2022-12-04T17:18:20.523Z,73985.97
2022-12-04T17:20:48.341Z,73982.31
2022-12-04T17:23:15.720Z,73978.75
2022-12-04T17:25:42.869Z,73975.59
2022-12-04T17:28:09.914Z,73971.69
2022-12-04T17:30:37.107Z,73968.19
2022-12-04T17:33:05.168Z,73964.22
2022-12-04T17:35:32.273Z,73960.09
2022-12-04T17:38:05.447Z,73956.75
2022-12-04T17:40:33.293Z,73953.25
2022-12-04T17:43:00.451Z,73949.75
2022-12-04T17:45:28.645Z,73946.44
2022-12-04T17:47:55.921Z,73943.28
2022-12-04T17:50:22.984Z,73939.16
2022-12-04T17:52:50.091Z,73935.66
2022-12-04T17:55:17.329Z,73931.53
2022-12-04T17:57:44.333Z,73928.38
2022-12-04T18:00:11.955Z,73925.22
2022-12-04T18:02:42.551Z,73921.84
2022-12-04T18:05:10.096Z,73918.75
2022-12-04T18:07:37.166Z,73915.38
2022-12-04T18:10:04.753Z,73912.75
2022-12-04T18:12:31.907Z,73909.84
2022-12-04T18:14:58.851Z,73907.22
2022-12-04T18:17:27.812Z,73904.25
2022-12-04T18:19:58.680Z,73901.81
2022-12-04T18:22:28.256Z,73899.50
2022-12-04T18:24:55.771Z,73897.00
2022-12-04T18:27:22.884Z,73894.84
2022-12-04T18:29:49.864Z,73892.53
2022-12-04T18:32:18.255Z,73890.19
2022-12-04T18:34:45.303Z,73888.44
2022-12-04T18:37:12.226Z,73886.41
2022-12-04T18:39:39.354Z,73884.38
2022-12-04T18:42:07.748Z,73882.66
2022-12-04T18:44:34.790Z,73880.78
2022-12-04T18:47:01.728Z,73878.69
2022-12-04T18:49:28.991Z,73876.63
2022-12-04T18:51:58.821Z,73874.69
2022-12-04T18:54:26.027Z,73873.00
2022-12-04T18:56:53.083Z,73870.66
2022-12-04T18:59:26.043Z,73868.50
2022-12-04T19:01:54.784Z,73866.19
2022-12-04T19:04:24.166Z,73863.84
2022-12-04T19:06:54.443Z,73861.06
2022-12-04T19:09:40.727Z,73858.91
2022-12-04T19:12:11.880Z,73856.38
2022-12-04T19:14:39.918Z,73853.91
2022-12-04T19:17:09.267Z,73852.03
2022-12-04T19:19:36.392Z,73850.16
2022-12-04T19:22:03.893Z,73847.75
2022-12-04T19:24:32.113Z,73846.19
2022-12-04T19:26:59.253Z,73844.41
2022-12-04T19:29:26.293Z,73843.16
2022-12-04T19:31:58.824Z,73841.03
2022-12-04T19:34:26.408Z,73839.34
2022-12-04T19:36:55.065Z,73837.47
2022-12-04T19:39:22.203Z,73835.44
2022-12-04T19:41:49.492Z,73833.56
2022-12-04T19:44:47.234Z,73831.72
2022-12-04T19:47:03.951Z,73830.13
2022-12-04T19:49:31.155Z,73828.91
2022-12-04T19:51:58.129Z,73827.53
2022-12-04T19:54:26.148Z,73826.78
2022-12-04T19:56:53.217Z,73825.94
2022-12-04T19:59:20.823Z,73825.81
2022-12-04T20:01:48.427Z,73825.63
2022-12-04T20:04:15.766Z,73825.81
2022-12-04T20:06:45.569Z,73825.19
2022-12-04T20:09:16.513Z,73825.34
2022-12-04T20:11:43.582Z,73824.88
2022-12-04T20:14:10.899Z,73824.31
2022-12-04T20:16:38.675Z,73823.56
2022-12-04T20:19:07.628Z,73823.34
2022-12-04T20:21:35.033Z,73822.31
2022-12-04T20:24:04.972Z,73821.28
2022-12-04T20:26:38.531Z,73820.56
2022-12-04T20:29:07.489Z,73820.13
2022-12-04T20:31:38.047Z,73819.72
2022-12-04T20:34:07.808Z,73818.88
2022-12-04T20:36:42.017Z,73817.94
2022-12-04T20:39:10.586Z,73817.19
2022-12-04T20:41:38.471Z,73816.00
2022-12-04T20:44:08.638Z,73815.03
2022-12-04T20:46:38.875Z,73813.66
2022-12-04T20:49:08.859Z,73812.19
2022-12-04T20:51:39.371Z,73810.38
2022-12-04T20:54:07.910Z,73808.94
2022-12-04T20:56:37.388Z,73807.59
2022-12-04T20:59:08.135Z,73806.59
2022-12-04T21:01:36.801Z,73805.75
2022-12-04T21:04:05.927Z,73805.16
2022-12-04T21:06:38.919Z,73804.47
2022-12-04T21:09:27.792Z,73803.44
2022-12-04T21:11:55.720Z,73802.47
2022-12-04T21:14:48.302Z,73801.31
2022-12-04T21:17:19.434Z,73800.28
2022-12-04T21:19:48.513Z,73798.56
2022-12-04T21:22:16.870Z,73796.78
2022-12-04T21:24:44.007Z,73794.53
2022-12-04T21:27:14.534Z,73791.72
2022-12-04T21:29:46.081Z,73788.47
2022-12-04T21:32:13.286Z,73785.28
2022-12-04T21:34:40.322Z,73782.38
2022-12-04T21:37:07.472Z,73779.28
2022-12-04T21:39:36.082Z,73776.25
2022-12-04T21:42:22.245Z,73773.22
2022-12-04T21:44:49.252Z,73770.59
2022-12-04T21:47:16.405Z,73768.09
2022-12-04T21:49:43.614Z,73765.75
2022-12-04T21:52:10.755Z,73763.44
2022-12-04T21:54:37.856Z,73760.81
2022-12-04T21:57:04.788Z,73758.03
2022-12-04T21:59:31.979Z,73755.09
2022-12-04T22:01:59.152Z,73752.56
2022-12-04T22:04:26.613Z,73749.81
2022-12-04T22:06:53.737Z,73747.28
2022-12-04T22:09:21.003Z,73745.16
2022-12-04T22:11:48.085Z,73743.09
2022-12-04T22:14:15.259Z,73740.59
2022-12-04T22:16:43.222Z,73738.56
2022-12-04T22:19:13.326Z,73736.69
2022-12-04T22:21:40.781Z,73734.50
2022-12-04T22:24:08.739Z,73732.75
2022-12-04T22:26:35.773Z,73730.53
2022-12-04T22:29:20.788Z,73728.78
2022-12-04T22:31:51.320Z,73726.75
2022-12-04T22:34:18.591Z,73725.00
2022-12-04T22:36:45.576Z,73723.09
2022-12-04T22:39:12.739Z,73721.63
2022-12-04T22:41:39.814Z,73720.28
2022-12-04T22:44:07.066Z,73719.03
2022-12-04T22:46:34.646Z,73718.19
2022-12-04T22:49:01.782Z,73717.06
2022-12-04T22:51:28.879Z,73715.13
2022-12-04T22:53:57.950Z,73713.44
2022-12-04T22:56:27.537Z,73712.28
2022-12-04T22:58:55.300Z,73711.44
2022-12-04T23:01:25.629Z,73710.09
2022-12-04T23:03:53.831Z,73709.28
2022-12-04T23:06:23.217Z,73707.84
2022-12-04T23:08:55.468Z,73706.53
2022-12-04T23:11:23.510Z,73705.06
2022-12-04T23:13:52.654Z,73703.97
2022-12-04T23:16:21.804Z,73702.66
2022-12-04T23:18:49.725Z,73701.03
2022-12-04T23:21:18.872Z,73699.91
2022-12-04T23:23:47.446Z,73698.94
2022-12-04T23:26:17.216Z,73697.13
2022-12-04T23:28:44.813Z,73696.31
2022-12-04T23:31:12.672Z,73694.84
2022-12-04T23:33:40.986Z,73693.34
2022-12-04T23:36:10.479Z,73691.88
2022-12-04T23:38:39.232Z,73690.56
2022-12-04T23:41:08.714Z,73690.03
2022-12-04T23:43:36.719Z,73689.13
2022-12-04T23:46:09.083Z,73688.56
2022-12-04T23:48:41.970Z,73688.66
2022-12-04T23:51:10.546Z,73688.53
2022-12-04T23:53:37.966Z,73688.09
2022-12-04T23:56:07.321Z,73688.59
2022-12-04T23:58:35.832Z,73688.41
